createdAt,value
2018-10-02T00:00:12.293Z,20.36
2018-10-02T00:01:43.664Z,20.31
2018-10-02T00:03:15.137Z,20.29
2018-10-02T00:04:46.718Z,20.16
2018-10-02T00:06:18.285Z,20.18
2018-10-02T00:07:49.864Z,20.23
2018-10-02T00:09:21.432Z,20.32
2018-10-02T00:10:53.308Z,20.16
2018-10-02T00:12:24.579Z,20.13
2018-10-02T00:13:56.154Z,20.11
2018-10-02T00:15:27.727Z,20.02
2018-10-02T00:16:59.300Z,19.98
2018-10-02T00:18:30.877Z,20.03
2018-10-02T00:20:02.548Z,19.87
2018-10-02T00:21:34.022Z,19.83
2018-10-02T00:23:05.595Z,19.84
2018-10-02T00:24:37.198Z,19.76
2018-10-02T00:26:08.742Z,19.78
2018-10-02T00:27:40.608Z,19.77
2018-10-02T00:29:11.889Z,19.71
2018-10-02T00:30:43.465Z,19.74
2018-10-02T00:32:15.272Z,19.68
2018-10-02T00:33:47.133Z,19.68
2018-10-02T00:35:18.184Z,19.62
2018-10-02T00:36:50.061Z,19.50
2018-10-02T00:38:21.431Z,19.71
2018-10-02T00:39:52.904Z,19.51
2018-10-02T00:41:24.480Z,19.56
2018-10-02T00:42:56.050Z,19.51
2018-10-02T00:44:27.624Z,19.55
2018-10-02T00:45:59.196Z,19.63
2018-10-02T00:47:30.769Z,19.65
2018-10-02T00:49:02.346Z,19.65
2018-10-02T00:50:33.917Z,19.54
2018-10-02T00:52:05.489Z,19.56
2018-10-02T00:53:37.064Z,19.50
2018-10-02T00:55:08.635Z,19.44
2018-10-02T00:56:40.408Z,19.37
2018-10-02T00:58:11.782Z,19.55
2018-10-02T00:59:43.658Z,19.40
2018-10-02T01:01:14.927Z,19.46
2018-10-02T01:02:46.507Z,19.40
2018-10-02T01:04:18.073Z,19.37
2018-10-02T01:05:49.647Z,19.39
2018-10-02T01:07:21.422Z,19.37
2018-10-02T01:08:52.995Z,19.29
2018-10-02T01:10:24.365Z,19.31
2018-10-02T01:11:55.939Z,19.31
2018-10-02T01:13:27.511Z,19.36
2018-10-02T01:14:59.185Z,19.37
2018-10-02T01:16:30.659Z,19.46
2018-10-02T01:18:02.231Z,19.58
2018-10-02T01:19:33.805Z,19.51
2018-10-02T01:21:05.677Z,19.39
2018-10-02T01:22:36.949Z,19.37
2018-10-02T01:24:08.523Z,19.36
2018-10-02T01:27:11.669Z,19.51
2018-10-02T01:28:43.243Z,19.87
2018-10-02T01:30:14.815Z,20.02
2018-10-02T01:31:46.388Z,20.02
2018-10-02T01:33:18.080Z,20.06
2018-10-02T01:36:21.107Z,19.77
2018-10-02T01:37:52.681Z,19.66
2018-10-02T01:39:24.253Z,19.63
2018-10-02T01:40:55.826Z,19.56
2018-10-02T01:42:27.399Z,19.83
2018-10-02T01:43:58.971Z,19.99
2018-10-02T01:45:30.545Z,19.98
2018-10-02T01:47:02.118Z,19.86
2018-10-02T01:48:33.691Z,19.66
2018-10-02T01:50:05.263Z,19.71
2018-10-02T01:51:37.237Z,19.43
2018-10-02T01:53:08.417Z,19.40
2018-10-02T01:54:39.985Z,19.58
2018-10-02T01:56:11.562Z,19.43
2018-10-02T01:57:43.128Z,19.41
2018-10-02T01:59:14.704Z,19.36
2018-10-02T02:00:46.282Z,19.33
2018-10-02T02:02:17.848Z,19.37
2018-10-02T02:03:49.421Z,19.41
2018-10-02T02:05:20.997Z,19.55
2018-10-02T02:06:52.798Z,19.43
2018-10-02T02:08:24.141Z,19.37
2018-10-02T02:09:55.813Z,19.36
2018-10-02T02:11:27.289Z,19.58
2018-10-02T02:12:58.871Z,19.55
2018-10-02T02:14:30.449Z,19.73
2018-10-02T02:16:02.005Z,19.68
2018-10-02T02:17:33.580Z,19.69
2018-10-02T02:19:05.175Z,19.68
2018-10-02T02:20:36.727Z,19.71
2018-10-02T02:22:08.696Z,19.65
2018-10-02T02:23:39.882Z,19.65
2018-10-02T02:25:11.442Z,19.66
2018-10-02T02:26:43.016Z,19.69
2018-10-02T02:28:14.838Z,19.77
2018-10-02T02:29:46.160Z,19.83
2018-10-02T02:31:17.736Z,19.76
2018-10-02T02:32:49.306Z,19.78
2018-10-02T02:34:20.879Z,19.81
2018-10-02T02:35:52.481Z,19.78
2018-10-02T02:37:24.027Z,19.91
2018-10-02T02:40:27.233Z,19.99
2018-10-02T02:41:58.753Z,20.18
2018-10-02T02:43:30.327Z,20.20
2018-10-02T02:45:01.889Z,20.32
2018-10-02T02:46:33.578Z,20.18
2018-10-02T02:48:05.034Z,20.31
2018-10-02T02:49:36.613Z,20.29
2018-10-02T02:51:08.184Z,20.16
2018-10-02T02:52:40.079Z,20.16
2018-10-02T02:54:11.363Z,20.11
2018-10-02T02:55:42.901Z,20.06
2018-10-02T02:57:14.474Z,20.05
2018-10-02T02:58:46.144Z,19.99
2018-10-02T03:00:17.618Z,19.84
2018-10-02T03:01:49.191Z,19.83
2018-10-02T03:03:20.785Z,19.68
2018-10-02T03:04:52.738Z,19.73
2018-10-02T03:06:23.907Z,19.81
2018-10-02T03:07:55.480Z,19.80
2018-10-02T03:09:27.054Z,19.69
2018-10-02T03:10:58.627Z,19.68
2018-10-02T03:12:30.198Z,19.77
2018-10-02T03:14:01.773Z,19.69
2018-10-02T03:15:33.373Z,19.68
2018-10-02T03:17:04.916Z,19.88
2018-10-02T03:18:36.488Z,19.92
2018-10-02T03:20:08.062Z,19.94
2018-10-02T03:21:39.685Z,19.96
2018-10-02T03:23:11.606Z,20.01
2018-10-02T03:24:42.796Z,19.95
2018-10-02T03:26:14.352Z,19.94
2018-10-02T03:29:17.596Z,19.86
2018-10-02T03:30:49.071Z,19.87
2018-10-02T03:32:20.641Z,19.83
2018-10-02T03:33:52.230Z,19.80
2018-10-02T03:35:23.786Z,19.81
2018-10-02T03:36:55.360Z,19.66
2018-10-02T03:38:26.932Z,19.51
2018-10-02T03:39:58.503Z,19.56
2018-10-02T03:41:30.195Z,19.59
2018-10-02T03:43:01.664Z,19.63
2018-10-02T03:44:33.245Z,19.62
2018-10-02T03:46:04.802Z,19.63
2018-10-02T03:47:36.366Z,19.63
2018-10-02T03:49:07.940Z,19.65
2018-10-02T03:50:39.538Z,19.71
2018-10-02T03:52:11.110Z,19.62
2018-10-02T03:53:42.963Z,19.66
2018-10-02T03:55:14.229Z,19.69
2018-10-02T03:56:45.801Z,19.55
2018-10-02T03:58:17.428Z,19.58
2018-10-02T03:59:49.168Z,19.63
2018-10-02T04:01:20.521Z,19.50
2018-10-02T04:04:24.271Z,19.48
2018-10-02T04:05:55.346Z,19.58
2018-10-02T04:07:26.819Z,19.41
2018-10-02T04:08:58.382Z,19.46
2018-10-02T04:10:30.547Z,19.33
2018-10-02T04:12:01.527Z,19.36
2018-10-02T04:13:33.126Z,19.28
2018-10-02T04:15:04.672Z,19.36
2018-10-02T04:16:36.246Z,19.36
2018-10-02T04:18:08.169Z,19.33
2018-10-02T04:19:39.693Z,19.21
2018-10-02T04:21:10.962Z,19.07
2018-10-02T04:22:42.539Z,19.00
2018-10-02T04:24:14.108Z,18.94
2018-10-02T04:25:45.680Z,18.84
2018-10-02T04:27:17.257Z,18.78
2018-10-02T04:28:48.835Z,18.69
2018-10-02T04:30:20.499Z,18.76
2018-10-02T04:31:51.972Z,18.69
2018-10-02T04:33:23.543Z,18.55
2018-10-02T04:34:55.132Z,18.50
2018-10-02T04:36:26.890Z,18.50
2018-10-02T04:37:58.261Z,18.72
2018-10-02T04:39:29.866Z,18.80
2018-10-02T04:41:01.405Z,18.72
2018-10-02T04:42:32.995Z,18.81
2018-10-02T04:44:04.550Z,18.80
2018-10-02T04:45:36.123Z,18.69
2018-10-02T04:47:07.706Z,18.54
2018-10-02T04:48:39.267Z,18.32
2018-10-02T04:50:10.840Z,18.33
2018-10-02T04:53:13.986Z,18.55
2018-10-02T04:54:45.655Z,18.99
2018-10-02T04:56:17.177Z,19.04
2018-10-02T04:57:48.704Z,19.02
2018-10-02T04:59:20.275Z,18.99
2018-10-02T05:02:23.438Z,18.78
2018-10-02T05:03:54.987Z,18.69
2018-10-02T05:05:26.584Z,18.72
2018-10-02T05:06:58.132Z,18.67
2018-10-02T05:08:29.860Z,18.65
2018-10-02T05:10:01.280Z,18.69
2018-10-02T05:11:32.853Z,18.63
2018-10-02T05:13:04.427Z,18.50
2018-10-02T05:14:36.093Z,18.50
2018-10-02T05:16:07.565Z,18.66
2018-10-02T05:17:39.138Z,18.67
2018-10-02T05:19:10.712Z,18.70
2018-10-02T05:20:42.353Z,18.54
2018-10-02T05:22:13.854Z,18.44
2018-10-02T05:23:45.477Z,18.20
2018-10-02T05:25:16.999Z,18.15
2018-10-02T05:26:48.622Z,18.14
2018-10-02T05:28:20.160Z,18.07
2018-10-02T05:29:51.737Z,18.02
2018-10-02T05:31:23.286Z,18.03
2018-10-02T05:32:55.142Z,18.08
2018-10-02T05:34:26.431Z,18.08
2018-10-02T05:35:58.004Z,18.10
2018-10-02T05:37:29.575Z,18.03
2018-10-02T05:39:01.147Z,18.07
2018-10-02T05:40:32.730Z,17.96
2018-10-02T05:42:04.290Z,17.97
2018-10-02T05:43:35.863Z,17.97
2018-10-02T05:45:07.441Z,18.00
2018-10-02T05:46:39.029Z,17.93
2018-10-02T05:48:10.595Z,17.99
2018-10-02T05:49:42.680Z,17.97
2018-10-02T05:51:13.823Z,17.96
2018-10-02T05:52:45.293Z,17.89
2018-10-02T05:54:16.864Z,17.81
2018-10-02T05:55:48.443Z,17.79
2018-10-02T05:57:20.109Z,17.84
2018-10-02T06:00:23.152Z,18.05
2018-10-02T06:01:54.729Z,18.14
2018-10-02T06:03:26.421Z,18.32
2018-10-02T06:04:57.867Z,18.62
2018-10-02T06:06:29.439Z,18.45
2018-10-02T06:08:01.017Z,18.27
2018-10-02T06:09:32.704Z,18.33
2018-10-02T06:11:04.152Z,18.47
2018-10-02T06:12:35.730Z,18.57
2018-10-02T06:14:07.295Z,18.47
2018-10-02T06:15:38.866Z,18.29
2018-10-02T06:17:10.445Z,18.50
2018-10-02T06:18:42.073Z,18.51
2018-10-02T06:20:13.582Z,18.42
2018-10-02T06:21:45.154Z,18.48
2018-10-02T06:23:16.729Z,18.30
2018-10-02T06:24:48.456Z,18.18
2018-10-02T06:26:19.867Z,18.20
2018-10-02T06:27:51.840Z,18.10
2018-10-02T06:29:23.022Z,18.03
2018-10-02T06:30:54.613Z,18.11
2018-10-02T06:32:26.155Z,18.37
2018-10-02T06:33:57.826Z,18.60
2018-10-02T06:35:29.300Z,18.62
2018-10-02T06:37:00.873Z,18.55
2018-10-02T06:38:32.570Z,18.51
2018-10-02T06:40:04.014Z,18.51
2018-10-02T06:41:35.603Z,18.39
2018-10-02T06:43:07.158Z,18.45
2018-10-02T06:44:38.790Z,18.41
2018-10-02T06:46:10.406Z,18.39
2018-10-02T06:47:42.381Z,18.32
2018-10-02T06:49:13.450Z,18.25
2018-10-02T06:50:45.035Z,17.99
2018-10-02T06:52:16.746Z,17.96
2018-10-02T06:53:48.165Z,17.99
2018-10-02T06:55:19.735Z,17.90
2018-10-02T06:56:51.399Z,17.96
2018-10-02T06:58:23.180Z,17.79
2018-10-02T06:59:54.455Z,17.79
2018-10-02T07:01:26.024Z,17.81
2018-10-02T07:02:57.651Z,17.81
2018-10-02T07:04:29.429Z,17.79
2018-10-02T07:06:00.743Z,17.82
2018-10-02T07:07:32.312Z,17.78
2018-10-02T07:09:03.925Z,17.77
2018-10-02T07:10:35.457Z,17.75
2018-10-02T07:12:07.028Z,17.78
2018-10-02T07:13:38.602Z,17.87
2018-10-02T07:15:10.257Z,18.11
2018-10-02T07:16:41.747Z,18.21
2018-10-02T07:18:13.318Z,18.27
2018-10-02T07:19:44.895Z,18.52
2018-10-02T07:21:16.461Z,18.51
2018-10-02T07:22:48.134Z,18.51
2018-10-02T07:24:19.606Z,18.52
2018-10-02T07:25:51.215Z,18.47
2018-10-02T07:27:22.972Z,18.39
2018-10-02T07:30:26.197Z,18.17
2018-10-02T07:31:57.467Z,18.02
2018-10-02T07:33:29.043Z,18.10
2018-10-02T07:35:00.611Z,18.08
2018-10-02T07:36:32.201Z,18.05
2018-10-02T07:38:03.756Z,18.03
2018-10-02T07:39:35.327Z,18.08
2018-10-02T07:41:06.904Z,18.03
2018-10-02T07:42:38.593Z,18.05
2018-10-02T07:44:10.045Z,18.18
2018-10-02T07:45:41.620Z,18.29
2018-10-02T07:47:13.223Z,18.25
2018-10-02T07:48:44.767Z,18.48
2018-10-02T07:50:16.335Z,18.44
2018-10-02T07:51:47.905Z,18.50
2018-10-02T07:53:19.478Z,18.51
2018-10-02T07:54:51.085Z,18.44
2018-10-02T07:56:22.639Z,18.27
2018-10-02T07:57:54.194Z,18.26
2018-10-02T07:59:25.798Z,18.50
2018-10-02T08:00:57.739Z,18.33
2018-10-02T08:02:28.973Z,18.35
2018-10-02T08:04:00.483Z,18.35
2018-10-02T08:05:32.057Z,18.25
2018-10-02T08:07:03.728Z,18.25
2018-10-02T08:08:35.227Z,18.23
2018-10-02T08:10:06.784Z,18.15
2018-10-02T08:11:38.416Z,18.29
2018-10-02T08:13:09.912Z,18.27
2018-10-02T08:14:41.545Z,18.35
2018-10-02T08:16:13.067Z,18.37
2018-10-02T08:17:44.878Z,18.50
2018-10-02T08:19:16.555Z,18.48
2018-10-02T08:20:47.780Z,18.37
2018-10-02T08:22:19.342Z,18.36
2018-10-02T08:23:50.982Z,18.35
2018-10-02T08:25:22.584Z,18.41
2018-10-02T08:26:54.131Z,18.32
2018-10-02T08:28:25.628Z,18.54
2018-10-02T08:29:57.369Z,18.67
2018-10-02T08:31:28.799Z,18.72
2018-10-02T08:33:00.401Z,18.95
2018-10-02T08:34:31.913Z,18.90
2018-10-02T08:36:03.658Z,18.91
2018-10-02T08:37:35.260Z,18.92
2018-10-02T08:39:06.737Z,19.02
2018-10-02T08:40:38.200Z,19.13
2018-10-02T08:42:09.771Z,19.14
2018-10-02T08:43:41.476Z,19.22
2018-10-02T08:46:44.496Z,19.13
2018-10-02T08:48:16.146Z,19.19
2018-10-02T08:49:47.653Z,19.14
2018-10-02T08:51:19.204Z,19.11
2018-10-02T08:52:51.080Z,19.13
2018-10-02T08:54:22.347Z,19.06
2018-10-02T08:55:54.049Z,19.10
2018-10-02T08:57:25.883Z,19.16
2018-10-02T08:58:57.109Z,19.32
2018-10-02T09:00:28.650Z,19.37
2018-10-02T09:02:01.130Z,19.31
2018-10-02T09:03:31.793Z,19.36
2018-10-02T09:05:03.485Z,19.25
2018-10-02T09:08:06.628Z,19.14
2018-10-02T09:09:38.319Z,19.11
2018-10-02T09:11:09.643Z,19.13
2018-10-02T09:12:41.620Z,19.14
2018-10-02T09:14:13.124Z,19.23
2018-10-02T09:15:44.772Z,19.55
2018-10-02T09:18:47.521Z,20.58
2018-10-02T09:20:19.117Z,21.07
2018-10-02T09:21:50.753Z,21.44
2018-10-02T09:23:22.323Z,21.79
2018-10-02T09:24:54.067Z,21.83
2018-10-02T09:26:25.373Z,22.06
2018-10-02T09:27:56.986Z,21.86
2018-10-02T09:29:28.522Z,21.43
2018-10-02T09:31:01.043Z,20.99
2018-10-02T09:32:31.773Z,20.43
2018-10-02T09:34:03.306Z,20.28
2018-10-02T09:35:35.025Z,20.29
2018-10-02T09:37:06.475Z,20.18
2018-10-02T09:38:38.074Z,20.35
2018-10-02T09:40:09.547Z,20.26
2018-10-02T09:43:12.699Z,20.66
2018-10-02T09:44:44.476Z,20.73
2018-10-02T09:46:15.847Z,20.97
2018-10-02T09:47:47.626Z,21.14
2018-10-02T09:49:19.201Z,21.12
2018-10-02T09:52:22.248Z,20.72
2018-10-02T09:55:25.821Z,20.80
2018-10-02T09:56:57.230Z,20.95
2018-10-02T10:00:00.028Z,21.34
2018-10-02T10:01:31.868Z,21.40
2018-10-02T10:03:03.257Z,21.29
2018-10-02T10:04:34.755Z,21.19
2018-10-02T10:06:06.384Z,20.95
2018-10-02T10:07:38.040Z,20.89
2018-10-02T10:09:09.482Z,21.12
2018-10-02T10:10:41.303Z,21.04
2018-10-02T10:12:13.094Z,21.24
2018-10-02T10:15:15.839Z,21.42
2018-10-02T10:16:47.579Z,21.44
2018-10-02T10:18:19.246Z,21.56
2018-10-02T10:19:50.675Z,21.64
2018-10-02T10:22:53.733Z,21.72
2018-10-02T10:24:25.306Z,21.71
2018-10-02T10:25:57.207Z,21.82
2018-10-02T10:27:28.440Z,21.91
2018-10-02T10:30:32.868Z,22.27
2018-10-02T10:32:03.255Z,22.60
2018-10-02T10:33:34.814Z,22.77
2018-10-02T10:35:06.831Z,22.94
2018-10-02T10:36:38.426Z,23.00
2018-10-02T10:38:10.075Z,23.09
2018-10-02T10:39:42.135Z,23.27
2018-10-02T10:41:13.176Z,23.27
2018-10-02T10:42:44.677Z,23.31
2018-10-02T10:44:16.004Z,23.15
2018-10-02T10:45:47.684Z,23.12
2018-10-02T10:48:50.796Z,22.73
2018-10-02T10:50:22.900Z,22.75
2018-10-02T10:51:53.757Z,22.72
2018-10-02T10:53:26.136Z,22.70
2018-10-02T10:54:56.803Z,22.97
2018-10-02T10:56:28.727Z,23.19
2018-10-02T10:58:01.192Z,23.46
2018-10-02T10:59:31.540Z,23.75
2018-10-02T11:02:34.843Z,24.09
2018-10-02T11:07:09.444Z,23.75
2018-10-02T11:08:41.156Z,23.75
2018-10-02T11:11:44.869Z,24.12
2018-10-02T11:13:15.907Z,24.45
2018-10-02T11:14:47.427Z,24.49
2018-10-02T11:16:19.555Z,24.45
2018-10-02T11:17:51.136Z,24.95
2018-10-02T11:19:22.506Z,25.98
2018-10-02T11:20:54.702Z,27.54
2018-10-02T11:22:25.468Z,28.52
2018-10-02T11:23:57.181Z,28.95
2018-10-02T11:25:28.861Z,29.46
2018-10-02T11:27:00.834Z,29.02
2018-10-02T11:28:32.053Z,29.21
2018-10-02T11:30:03.382Z,29.30
2018-10-02T11:31:35.560Z,28.86
2018-10-02T11:33:06.756Z,27.74
2018-10-02T11:34:39.778Z,27.07
2018-10-02T11:36:09.826Z,27.12
2018-10-02T11:37:41.602Z,26.65
2018-10-02T11:39:12.745Z,26.95
2018-10-02T11:40:45.091Z,26.95
2018-10-02T11:42:16.539Z,26.45
2018-10-02T11:43:48.354Z,26.10
2018-10-02T11:45:20.559Z,26.02
2018-10-02T11:46:50.775Z,26.52
2018-10-02T11:48:22.235Z,27.39
2018-10-02T11:49:53.920Z,27.04
2018-10-02T11:51:25.326Z,26.76
2018-10-02T11:52:57.070Z,26.51
2018-10-02T11:54:28.664Z,27.18
2018-10-02T11:56:00.068Z,27.37
2018-10-02T11:59:03.438Z,27.36
2018-10-02T12:00:34.882Z,27.43
2018-10-02T12:02:06.409Z,27.41
2018-10-02T12:03:38.592Z,27.65
2018-10-02T12:06:41.634Z,28.39
2018-10-02T12:08:14.396Z,28.14
2018-10-02T12:09:44.913Z,28.15
2018-10-02T12:11:16.932Z,28.02
2018-10-02T12:12:47.516Z,27.72
2018-10-02T12:14:19.352Z,27.49
2018-10-02T12:15:51.182Z,27.74
2018-10-02T12:17:22.279Z,27.82
2018-10-02T12:18:53.831Z,27.85
2018-10-02T12:21:57.000Z,27.57
2018-10-02T12:23:28.617Z,27.63
2018-10-02T12:26:31.855Z,28.07
2018-10-02T12:28:03.542Z,28.36
2018-10-02T12:29:35.126Z,28.61
2018-10-02T12:31:06.734Z,28.76
2018-10-02T12:32:38.600Z,28.12
2018-10-02T12:34:09.680Z,27.49
2018-10-02T12:35:41.305Z,27.74
2018-10-02T12:37:12.849Z,28.07
2018-10-02T12:38:44.737Z,28.12
2018-10-02T12:40:16.020Z,28.02
2018-10-02T12:41:47.909Z,28.39
2018-10-02T12:44:50.876Z,28.66
2018-10-02T12:46:22.364Z,28.51
2018-10-02T12:49:26.459Z,29.05
2018-10-02T12:50:57.118Z,28.24
2018-10-02T12:52:28.805Z,28.39
2018-10-02T12:57:03.461Z,29.27
2018-10-02T12:58:35.047Z,29.30
2018-10-02T13:00:06.634Z,29.15
2018-10-02T13:01:38.222Z,30.00
2018-10-02T13:03:10.213Z,29.65
2018-10-02T13:04:41.393Z,29.18
2018-10-02T13:06:13.285Z,29.43
2018-10-02T13:09:16.183Z,29.28
2018-10-02T13:10:48.348Z,29.53
2018-10-02T13:12:19.349Z,28.95
2018-10-02T13:13:50.915Z,29.41
2018-10-02T13:15:22.809Z,29.80
2018-10-02T13:16:54.368Z,29.34
2018-10-02T13:18:25.674Z,29.70
2018-10-02T13:19:57.310Z,30.10
2018-10-02T13:24:32.176Z,30.37
2018-10-02T13:26:03.611Z,29.73
2018-10-02T13:29:06.796Z,29.68
2018-10-02T13:30:38.983Z,30.39
2018-10-02T13:32:09.970Z,30.91
2018-10-02T13:33:41.646Z,31.07
2018-10-02T13:35:13.135Z,30.67
2018-10-02T13:36:44.724Z,30.27
2018-10-02T13:39:47.940Z,30.35
2018-10-02T13:41:19.488Z,30.22
2018-10-02T13:42:51.381Z,30.47
2018-10-02T13:44:22.677Z,30.15
2018-10-02T13:50:29.242Z,30.51
2018-10-02T13:52:00.601Z,30.16
2018-10-02T13:53:32.191Z,30.32
2018-10-02T13:55:03.775Z,30.24
2018-10-02T13:58:07.050Z,30.24
2018-10-02T14:01:10.392Z,31.12
2018-10-02T14:04:13.438Z,30.80
2018-10-02T14:05:44.887Z,31.17
2018-10-02T14:07:16.476Z,31.20
2018-10-02T14:08:48.061Z,31.13
2018-10-02T14:13:23.084Z,31.35
2018-10-02T14:16:26.003Z,31.96
2018-10-02T14:17:57.590Z,31.96
2018-10-02T14:19:29.234Z,30.80
2018-10-02T14:21:01.074Z,31.04
2018-10-02T14:22:33.107Z,31.06
2018-10-02T14:24:04.250Z,31.20
2018-10-02T14:25:35.639Z,31.92
2018-10-02T14:27:07.411Z,31.62
2018-10-02T14:28:39.215Z,31.81
2018-10-02T14:30:11.218Z,31.99
2018-10-02T14:31:42.358Z,31.75
2018-10-02T14:33:14.238Z,30.23
2018-10-02T14:34:45.993Z,30.58
2018-10-02T14:36:16.982Z,31.17
2018-10-02T14:37:48.469Z,31.78
2018-10-02T14:39:20.340Z,31.68
2018-10-02T14:40:51.953Z,32.66
2018-10-02T14:42:23.416Z,33.54
2018-10-02T14:43:56.389Z,33.34
2018-10-02T14:45:27.796Z,32.93
2018-10-02T14:46:58.014Z,31.75
2018-10-02T14:48:29.416Z,31.70
2018-10-02T14:50:01.143Z,31.84
2018-10-02T14:53:05.102Z,32.48
2018-10-02T14:54:36.318Z,31.56
2018-10-02T14:56:07.902Z,31.89
2018-10-02T14:57:40.488Z,32.87
2018-10-02T14:59:11.790Z,33.51
2018-10-02T15:00:42.545Z,34.42
2018-10-02T15:02:13.937Z,34.91
2018-10-02T15:03:46.303Z,35.45
2018-10-02T15:05:17.550Z,35.11
2018-10-02T15:06:48.746Z,34.96
2018-10-02T15:08:21.159Z,33.56
2018-10-02T15:09:52.884Z,32.93
2018-10-02T15:11:23.977Z,32.13
2018-10-02T15:12:55.013Z,31.86
2018-10-02T15:14:26.891Z,32.45
2018-10-02T15:15:58.162Z,32.19
2018-10-02T15:17:29.626Z,31.46
2018-10-02T15:19:01.286Z,31.32
2018-10-02T15:20:32.780Z,31.10
2018-10-02T15:22:04.889Z,31.91
2018-10-02T15:25:07.544Z,32.04
2018-10-02T15:26:39.432Z,31.66
2018-10-02T15:28:11.222Z,31.53
2018-10-02T15:32:45.680Z,32.52
2018-10-02T15:34:17.670Z,32.69
2018-10-02T15:35:48.650Z,33.01
2018-10-02T15:37:20.564Z,33.16
2018-10-02T15:40:23.721Z,33.63
2018-10-02T15:43:26.800Z,32.74
2018-10-02T15:44:58.192Z,33.73
2018-10-02T15:46:30.183Z,33.29
2018-10-02T15:49:32.962Z,33.97
2018-10-02T15:51:04.603Z,34.80
2018-10-02T15:52:36.248Z,34.91
2018-10-02T15:54:07.777Z,35.04
2018-10-02T15:55:39.330Z,34.19
2018-10-02T15:57:11.228Z,33.41
2018-10-02T15:58:42.518Z,33.15
2018-10-02T16:00:15.239Z,33.61
2018-10-02T16:01:46.005Z,33.21
2018-10-02T16:03:17.297Z,33.86
2018-10-02T16:04:49.042Z,32.88
2018-10-02T16:06:21.008Z,33.18
2018-10-02T16:07:52.074Z,33.29
2018-10-02T16:09:24.189Z,33.41
2018-10-02T16:10:55.260Z,32.77
2018-10-02T16:12:27.162Z,32.33
2018-10-02T16:13:58.904Z,33.49
2018-10-02T16:17:01.638Z,33.68
2018-10-02T16:18:34.150Z,34.85
2018-10-02T16:20:05.267Z,33.98
2018-10-02T16:21:36.411Z,33.16
2018-10-02T16:23:08.305Z,32.40
2018-10-02T16:24:42.873Z,32.18
2018-10-02T16:27:42.994Z,33.56
2018-10-02T16:29:14.363Z,32.65
2018-10-02T16:30:46.218Z,32.07
2018-10-02T16:32:17.874Z,31.99
2018-10-02T16:33:50.663Z,32.72
2018-10-02T16:36:52.307Z,31.86
2018-10-02T16:46:02.037Z,32.01
2018-10-02T16:47:33.414Z,32.01
2018-10-02T16:49:05.371Z,31.93
2018-10-02T16:50:37.502Z,31.93
2018-10-02T16:52:08.161Z,31.92
2018-10-02T16:53:40.049Z,31.96
2018-10-02T16:55:11.581Z,32.10
2018-10-02T16:56:43.118Z,32.06
2018-10-02T16:58:14.499Z,32.00
2018-10-02T16:59:46.997Z,31.66
2018-10-02T17:01:17.667Z,31.65
2018-10-02T17:02:49.699Z,32.00
2018-10-02T17:04:22.167Z,32.45
2018-10-02T17:05:52.669Z,32.65
2018-10-02T17:10:28.122Z,32.57
2018-10-02T17:11:59.201Z,32.69
2018-10-02T17:13:31.322Z,32.93
2018-10-02T17:16:33.564Z,32.69
2018-10-02T17:18:05.131Z,32.63
2018-10-02T17:19:36.947Z,32.93
2018-10-02T17:21:10.195Z,32.94
2018-10-02T17:22:40.589Z,33.26
2018-10-02T17:24:12.280Z,33.54
2018-10-02T17:25:44.122Z,33.01
2018-10-02T17:27:14.691Z,32.07
2018-10-02T17:28:46.635Z,31.75
2018-10-02T17:30:17.808Z,31.95
2018-10-02T17:31:50.054Z,32.37
2018-10-02T17:33:20.973Z,32.44
2018-10-02T17:34:52.673Z,32.32
2018-10-02T17:36:24.350Z,32.06
2018-10-02T17:37:55.986Z,31.58
2018-10-02T17:39:27.514Z,31.56
2018-10-02T17:40:59.481Z,31.26
2018-10-02T17:42:30.477Z,30.83
2018-10-02T17:45:33.845Z,29.45
2018-10-02T17:48:36.839Z,29.11
2018-10-02T17:50:08.783Z,28.76
2018-10-02T17:51:40.271Z,28.49
2018-10-02T17:53:11.579Z,28.71
2018-10-02T17:54:43.232Z,28.96
2018-10-02T17:56:15.762Z,28.89
2018-10-02T17:57:46.292Z,28.78
2018-10-02T17:59:18.272Z,29.42
2018-10-02T18:00:49.790Z,29.64
2018-10-02T18:03:52.793Z,29.18
2018-10-02T18:05:24.579Z,29.98
2018-10-02T18:06:55.810Z,31.19
2018-10-02T18:08:27.384Z,32.13
2018-10-02T18:09:59.263Z,32.18
2018-10-02T18:11:30.705Z,30.83
2018-10-02T18:13:02.447Z,30.02
2018-10-02T18:14:33.933Z,30.04
2018-10-02T18:16:05.371Z,30.94
2018-10-02T18:17:37.044Z,30.64
2018-10-02T18:19:09.682Z,30.02
2018-10-02T18:20:40.390Z,29.67
2018-10-02T18:22:12.025Z,30.24
2018-10-02T18:23:44.602Z,30.53
2018-10-02T18:25:15.983Z,30.27
2018-10-02T18:29:50.181Z,29.51
2018-10-02T18:31:21.650Z,29.78
2018-10-02T18:34:25.273Z,30.45
2018-10-02T18:35:56.011Z,31.01
2018-10-02T18:37:27.987Z,30.61
2018-10-02T18:38:59.290Z,30.77
2018-10-02T18:40:31.524Z,29.98
2018-10-02T18:42:02.806Z,29.33
2018-10-02T18:43:34.151Z,28.55
2018-10-02T18:45:05.405Z,29.15
2018-10-02T18:46:37.470Z,29.53
2018-10-02T18:48:10.195Z,29.26
2018-10-02T18:49:40.954Z,28.86
2018-10-02T18:51:12.051Z,29.18
2018-10-02T18:52:44.527Z,28.70
2018-10-02T18:54:15.909Z,28.93
2018-10-02T18:55:47.407Z,28.37
2018-10-02T18:57:18.165Z,28.22
2018-10-02T18:58:50.397Z,27.84
2018-10-02T19:00:21.353Z,27.75
2018-10-02T19:01:52.992Z,27.77
2018-10-02T19:03:24.509Z,27.27
2018-10-02T19:04:55.991Z,26.54
2018-10-02T19:06:27.780Z,26.43
2018-10-02T19:07:59.163Z,26.57
2018-10-02T19:09:30.740Z,26.75
2018-10-02T19:11:02.626Z,27.09
2018-10-02T19:14:05.777Z,29.00
2018-10-02T19:15:37.069Z,28.11
2018-10-02T19:20:12.137Z,26.51
2018-10-02T19:21:43.401Z,26.99
2018-10-02T19:23:15.185Z,26.73
2018-10-02T19:24:46.620Z,26.47
2018-10-02T19:27:49.728Z,25.88
2018-10-02T19:30:52.896Z,25.62
2018-10-02T19:33:56.219Z,25.18
2018-10-02T19:36:59.419Z,24.93
2018-10-02T19:38:30.797Z,24.46
2018-10-02T19:40:02.377Z,24.64
2018-10-02T19:41:33.959Z,24.34
2018-10-02T19:43:05.538Z,24.37
2018-10-02T19:44:37.120Z,24.34
2018-10-02T19:46:09.002Z,24.21
2018-10-02T19:47:40.800Z,24.27
2018-10-02T19:49:11.859Z,24.34
2018-10-02T19:52:15.641Z,24.30
2018-10-02T19:53:46.619Z,24.20
2018-10-02T19:56:50.056Z,24.09
2018-10-02T19:58:21.333Z,23.97
2018-10-02T19:59:52.959Z,23.68
2018-10-02T20:01:24.490Z,23.85
2018-10-02T20:02:56.066Z,23.97
2018-10-02T20:04:27.645Z,24.03
2018-10-02T20:05:59.458Z,24.06
2018-10-02T20:07:31.423Z,23.98
2018-10-02T20:09:02.581Z,23.75
2018-10-02T20:10:34.086Z,23.75
2018-10-02T20:12:05.535Z,23.55
2018-10-02T20:16:40.378Z,23.55
2018-10-02T20:18:12.149Z,23.78
2018-10-02T20:19:43.424Z,23.69
2018-10-02T20:21:15.005Z,23.68
2018-10-02T20:22:46.578Z,23.35
2018-10-02T20:25:49.734Z,23.51
2018-10-02T20:27:21.445Z,23.48
2018-10-02T20:28:52.987Z,23.28
2018-10-02T20:30:24.781Z,23.28
2018-10-02T20:31:56.043Z,23.28
2018-10-02T20:33:27.622Z,23.19
2018-10-02T20:34:59.398Z,23.28
2018-10-02T20:36:30.807Z,23.16
2018-10-02T20:39:33.926Z,23.10
2018-10-02T20:41:05.502Z,23.13
2018-10-02T20:42:37.084Z,23.01
2018-10-02T20:45:40.435Z,22.86
2018-10-02T20:47:12.532Z,22.85
2018-10-02T20:48:43.385Z,22.82
2018-10-02T20:50:14.963Z,22.88
2018-10-02T20:51:46.538Z,22.85
2018-10-02T20:53:18.114Z,22.82
2018-10-02T20:54:49.696Z,22.88
2018-10-02T20:56:21.266Z,22.77
2018-10-02T20:57:52.842Z,22.77
2018-10-02T20:59:24.419Z,22.91
2018-10-02T21:00:56.298Z,22.72
2018-10-02T21:02:27.570Z,22.76
2018-10-02T21:03:59.146Z,22.88
2018-10-02T21:05:30.898Z,22.97
2018-10-02T21:07:02.332Z,23.04
2018-10-02T21:08:34.424Z,23.00
2018-10-02T21:10:05.455Z,22.98
2018-10-02T21:11:37.027Z,23.00
2018-10-02T21:13:08.602Z,23.01
2018-10-02T21:14:40.178Z,23.07
2018-10-02T21:16:11.758Z,23.02
2018-10-02T21:17:43.337Z,23.09
2018-10-02T21:19:14.909Z,23.12
2018-10-02T21:20:46.482Z,23.15
2018-10-02T21:22:18.058Z,23.17
2018-10-02T21:25:21.311Z,23.15
2018-10-02T21:26:52.786Z,23.12
2018-10-02T21:28:24.362Z,23.15
2018-10-02T21:29:55.939Z,23.13
2018-10-02T21:31:27.536Z,23.16
2018-10-02T21:32:59.090Z,23.13
2018-10-02T21:34:30.721Z,23.12
2018-10-02T21:36:02.244Z,23.13
2018-10-02T21:37:33.820Z,23.17
2018-10-02T21:39:05.396Z,23.13
2018-10-02T21:40:36.971Z,23.15
2018-10-02T21:42:08.551Z,23.19
2018-10-02T21:43:40.225Z,23.16
2018-10-02T21:45:11.699Z,23.15
2018-10-02T21:46:43.309Z,23.19
2018-10-02T21:48:14.860Z,23.01